sensor_id;sensor_type;location;lat;lon;timestamp;P1;durP1;ratioP1;P2;durP2;ratioP2
39740;SDS011;25426;53.478;10.190;2023-08-08T05:30:44;5.68;;;1.90;;
39740;SDS011;25426;53.478;10.190;2023-08-08T05:42:01;3.33;;;1.55;;
39740;SDS011;25426;53.478;10.190;2023-08-08T05:44:32;4.60;;;1.90;;
39740;SDS011;25426;53.478;10.190;2023-08-08T05:47:03;3.25;;;1.67;;
39740;SDS011;25426;53.478;10.190;2023-08-08T05:49:34;2.53;;;1.50;;
39740;SDS011;25426;53.478;10.190;2023-08-08T05:52:05;3.10;;;1.20;;
39740;SDS011;25426;53.478;10.190;2023-08-08T05:58:37;3.60;;;1.58;;
39740;SDS011;25426;53.478;10.190;2023-08-08T06:07:36;4.47;;;1.70;;
39740;SDS011;25426;53.478;10.190;2023-08-08T06:10:07;4.10;;;1.73;;
39740;SDS011;25426;53.478;10.190;2023-08-08T06:12:38;3.05;;;1.65;;
39740;SDS011;25426;53.478;10.190;2023-08-08T06:15:09;3.83;;;1.90;;
39740;SDS011;25426;53.478;10.190;2023-08-08T06:17:40;4.10;;;1.95;;
39740;SDS011;25426;53.478;10.190;2023-08-08T06:20:11;2.92;;;1.42;;
39740;SDS011;25426;53.478;10.190;2023-08-08T06:22:42;3.13;;;1.53;;
39740;SDS011;25426;53.478;10.190;2023-08-08T06:25:13;3.67;;;1.40;;
39740;SDS011;25426;53.478;10.190;2023-08-08T06:27:44;3.55;;;1.88;;
39740;SDS011;25426;53.478;10.190;2023-08-08T06:30:15;2.47;;;1.55;;
39740;SDS011;25426;53.478;10.190;2023-08-08T06:32:46;4.65;;;1.70;;
39740;SDS011;25426;53.478;10.190;2023-08-08T06:35:17;5.20;;;1.80;;
39740;SDS011;25426;53.478;10.190;2023-08-08T06:37:48;3.80;;;2.10;;
39740;SDS011;25426;53.478;10.190;2023-08-08T06:40:19;3.53;;;1.85;;
39740;SDS011;25426;53.478;10.190;2023-08-08T06:42:51;3.28;;;1.63;;
39740;SDS011;25426;53.478;10.190;2023-08-08T06:45:22;3.70;;;1.60;;
39740;SDS011;25426;53.478;10.190;2023-08-08T06:47:53;2.33;;;1.43;;
39740;SDS011;25426;53.478;10.190;2023-08-08T06:50:27;2.90;;;1.48;;
39740;SDS011;25426;53.478;10.190;2023-08-08T06:52:58;4.93;;;1.88;;
39740;SDS011;25426;53.478;10.190;2023-08-08T06:55:29;2.70;;;1.60;;
39740;SDS011;25426;53.478;10.190;2023-08-08T06:58:00;4.35;;;1.50;;
39740;SDS011;25426;53.478;10.190;2023-08-08T07:00:30;1.77;;;1.30;;
39740;SDS011;25426;53.478;10.190;2023-08-08T07:03:01;3.83;;;1.65;;
39740;SDS011;25426;53.478;10.190;2023-08-08T07:05:32;4.30;;;1.80;;
39740;SDS011;25426;53.478;10.190;2023-08-08T07:08:03;3.63;;;1.65;;
39740;SDS011;25426;53.478;10.190;2023-08-08T07:10:35;3.15;;;1.70;;
39740;SDS011;25426;53.478;10.190;2023-08-08T07:13:06;3.03;;;1.50;;
39740;SDS011;25426;53.478;10.190;2023-08-08T07:15:37;4.70;;;1.60;;
39740;SDS011;25426;53.478;10.190;2023-08-08T07:18:08;3.07;;;1.53;;
39740;SDS011;25426;53.478;10.190;2023-08-08T07:20:39;3.88;;;1.60;;
39740;SDS011;25426;53.478;10.190;2023-08-08T07:23:10;4.43;;;1.60;;
39740;SDS011;25426;53.478;10.190;2023-08-08T07:25:41;4.50;;;1.42;;
39740;SDS011;25426;53.478;10.190;2023-08-08T07:28:12;4.05;;;1.65;;
39740;SDS011;25426;53.478;10.190;2023-08-08T07:30:44;2.60;;;1.40;;
39740;SDS011;25426;53.478;10.190;2023-08-08T07:33:15;2.28;;;1.35;;
39740;SDS011;25426;53.478;10.190;2023-08-08T07:35:46;3.40;;;1.27;;
39740;SDS011;25426;53.478;10.190;2023-08-08T07:38:17;3.60;;;1.42;;
39740;SDS011;25426;53.478;10.190;2023-08-08T07:40:48;2.83;;;1.30;;
39740;SDS011;25426;53.478;10.190;2023-08-08T07:43:19;2.70;;;1.38;;
39740;SDS011;25426;53.478;10.190;2023-08-08T07:45:50;5.20;;;1.85;;
39740;SDS011;25426;53.478;10.190;2023-08-08T07:48:21;2.73;;;1.40;;
39740;SDS011;25426;53.478;10.190;2023-08-08T07:50:52;3.50;;;1.42;;
39740;SDS011;25426;53.478;10.190;2023-08-08T07:53:23;3.03;;;1.33;;
39740;SDS011;25426;53.478;10.190;2023-08-08T07:55:54;3.50;;;1.50;;
39740;SDS011;25426;53.478;10.190;2023-08-08T07:58:25;4.80;;;1.63;;
39740;SDS011;25426;53.478;10.190;2023-08-08T08:00:57;4.18;;;1.58;;
39740;SDS011;25426;53.478;10.190;2023-08-08T08:03:29;3.60;;;1.40;;
39740;SDS011;25426;53.478;10.190;2023-08-08T08:05:59;5.72;;;1.83;;
39740;SDS011;25426;53.478;10.190;2023-08-08T08:08:30;3.42;;;1.40;;
39740;SDS011;25426;53.478;10.190;2023-08-08T08:11:02;3.55;;;1.80;;
39740;SDS011;25426;53.478;10.190;2023-08-08T08:13:33;3.33;;;1.70;;
39740;SDS011;25426;53.478;10.190;2023-08-08T08:16:04;3.28;;;1.65;;
39740;SDS011;25426;53.478;10.190;2023-08-08T08:18:35;3.80;;;1.73;;
39740;SDS011;25426;53.478;10.190;2023-08-08T08:21:06;3.67;;;1.60;;
39740;SDS011;25426;53.478;10.190;2023-08-08T08:23:37;4.77;;;2.20;;
39740;SDS011;25426;53.478;10.190;2023-08-08T08:26:08;5.07;;;2.10;;
39740;SDS011;25426;53.478;10.190;2023-08-08T08:28:39;5.17;;;1.80;;
39740;SDS011;25426;53.478;10.190;2023-08-08T08:31:10;5.25;;;1.50;;
39740;SDS011;25426;53.478;10.190;2023-08-08T08:33:41;5.82;;;2.15;;
39740;SDS011;25426;53.478;10.190;2023-08-08T08:36:13;4.95;;;1.88;;
39740;SDS011;25426;53.478;10.190;2023-08-08T08:38:44;3.70;;;1.40;;
39740;SDS011;25426;53.478;10.190;2023-08-08T08:41:17;3.90;;;1.50;;
39740;SDS011;25426;53.478;10.190;2023-08-08T08:43:49;3.42;;;1.48;;
39740;SDS011;25426;53.478;10.190;2023-08-08T08:46:20;3.47;;;1.27;;
39740;SDS011;25426;53.478;10.190;2023-08-08T08:48:53;4.13;;;1.60;;
39740;SDS011;25426;53.478;10.190;2023-08-08T08:51:26;3.20;;;1.48;;
39740;SDS011;25426;53.478;10.190;2023-08-08T08:53:58;4.18;;;1.55;;
39740;SDS011;25426;53.478;10.190;2023-08-08T08:56:28;3.45;;;1.50;;
39740;SDS011;25426;53.478;10.190;2023-08-08T08:59:00;2.63;;;1.15;;
39740;SDS011;25426;53.478;10.190;2023-08-08T09:01:31;2.97;;;1.30;;
39740;SDS011;25426;53.478;10.190;2023-08-08T09:04:02;2.90;;;1.48;;
39740;SDS011;25426;53.478;10.190;2023-08-08T09:06:34;4.25;;;1.40;;
39740;SDS011;25426;53.478;10.190;2023-08-08T09:09:07;2.95;;;1.48;;
39740;SDS011;25426;53.478;10.190;2023-08-08T09:11:38;5.00;;;1.33;;
39740;SDS011;25426;53.478;10.190;2023-08-08T09:14:20;2.80;;;1.10;;
39740;SDS011;25426;53.478;10.190;2023-08-08T09:16:53;3.90;;;1.40;;
39740;SDS011;25426;53.478;10.190;2023-08-08T09:19:25;3.40;;;1.30;;
39740;SDS011;25426;53.478;10.190;2023-08-08T09:21:56;3.22;;;0.95;;
39740;SDS011;25426;53.478;10.190;2023-08-08T09:24:27;3.43;;;1.30;;
39740;SDS011;25426;53.478;10.190;2023-08-08T09:26:58;2.38;;;0.98;;
39740;SDS011;25426;53.478;10.190;2023-08-08T09:29:40;2.15;;;0.85;;
39740;SDS011;25426;53.478;10.190;2023-08-08T09:32:30;1.95;;;0.95;;
39740;SDS011;25426;53.478;10.190;2023-08-08T09:35:01;1.58;;;0.88;;
39740;SDS011;25426;53.478;10.190;2023-08-08T09:37:33;3.33;;;0.80;;
39740;SDS011;25426;53.478;10.190;2023-08-08T09:40:04;2.37;;;0.90;;
39740;SDS011;25426;53.478;10.190;2023-08-08T09:42:37;2.35;;;0.93;;
39740;SDS011;25426;53.478;10.190;2023-08-08T09:45:10;2.53;;;1.05;;
39740;SDS011;25426;53.478;10.190;2023-08-08T09:47:41;4.65;;;1.33;;
39740;SDS011;25426;53.478;10.190;2023-08-08T09:50:12;2.90;;;0.85;;
39740;SDS011;25426;53.478;10.190;2023-08-08T09:52:43;1.85;;;1.00;;
39740;SDS011;25426;53.478;10.190;2023-08-08T09:55:16;2.45;;;1.05;;
39740;SDS011;25426;53.478;10.190;2023-08-08T09:57:47;2.15;;;0.90;;
39740;SDS011;25426;53.478;10.190;2023-08-08T10:00:19;2.90;;;1.20;;
39740;SDS011;25426;53.478;10.190;2023-08-08T10:02:50;2.30;;;1.03;;
39740;SDS011;25426;53.478;10.190;2023-08-08T10:05:22;2.03;;;0.90;;
39740;SDS011;25426;53.478;10.190;2023-08-08T10:07:53;3.00;;;1.00;;
39740;SDS011;25426;53.478;10.190;2023-08-08T10:10:25;3.22;;;0.82;;
39740;SDS011;25426;53.478;10.190;2023-08-08T10:12:56;1.87;;;0.90;;
39740;SDS011;25426;53.478;10.190;2023-08-08T10:15:27;4.97;;;1.10;;
39740;SDS011;25426;53.478;10.190;2023-08-08T10:17:58;2.58;;;0.93;;
39740;SDS011;25426;53.478;10.190;2023-08-08T10:20:31;3.40;;;1.15;;
39740;SDS011;25426;53.478;10.190;2023-08-08T10:23:06;3.47;;;1.27;;
39740;SDS011;25426;53.478;10.190;2023-08-08T10:25:43;2.33;;;1.00;;
39740;SDS011;25426;53.478;10.190;2023-08-08T10:28:19;3.33;;;1.20;;
39740;SDS011;25426;53.478;10.190;2023-08-08T10:30:55;4.10;;;1.30;;
39740;SDS011;25426;53.478;10.190;2023-08-08T10:33:39;2.20;;;1.02;;
39740;SDS011;25426;53.478;10.190;2023-08-08T10:36:12;3.87;;;1.27;;
39740;SDS011;25426;53.478;10.190;2023-08-08T10:38:45;3.38;;;1.30;;
39740;SDS011;25426;53.478;10.190;2023-08-08T10:41:20;3.38;;;1.10;;
39740;SDS011;25426;53.478;10.190;2023-08-08T10:43:53;3.58;;;1.10;;
39740;SDS011;25426;53.478;10.190;2023-08-08T10:46:27;2.92;;;1.27;;
39740;SDS011;25426;53.478;10.190;2023-08-08T10:49:02;3.63;;;1.40;;
39740;SDS011;25426;53.478;10.190;2023-08-08T10:54:18;2.72;;;1.60;;
39740;SDS011;25426;53.478;10.190;2023-08-08T10:56:59;2.35;;;1.02;;
39740;SDS011;25426;53.478;10.190;2023-08-08T10:59:37;3.65;;;1.17;;
39740;SDS011;25426;53.478;10.190;2023-08-08T11:02:09;3.40;;;1.50;;
39740;SDS011;25426;53.478;10.190;2023-08-08T11:04:40;2.25;;;1.00;;
39740;SDS011;25426;53.478;10.190;2023-08-08T11:07:13;2.80;;;1.20;;
39740;SDS011;25426;53.478;10.190;2023-08-08T11:09:45;3.43;;;1.20;;
39740;SDS011;25426;53.478;10.190;2023-08-08T11:12:16;3.75;;;1.27;;
39740;SDS011;25426;53.478;10.190;2023-08-08T11:14:47;3.88;;;1.15;;
39740;SDS011;25426;53.478;10.190;2023-08-08T11:17:18;1.90;;;1.02;;
39740;SDS011;25426;53.478;10.190;2023-08-08T11:19:50;3.70;;;1.20;;
39740;SDS011;25426;53.478;10.190;2023-08-08T11:22:21;3.60;;;1.35;;
39740;SDS011;25426;53.478;10.190;2023-08-08T11:24:53;2.10;;;0.90;;
39740;SDS011;25426;53.478;10.190;2023-08-08T11:27:27;3.05;;;1.13;;
39740;SDS011;25426;53.478;10.190;2023-08-08T11:29:58;2.67;;;1.00;;
39740;SDS011;25426;53.478;10.190;2023-08-08T11:32:29;2.28;;;1.10;;
39740;SDS011;25426;53.478;10.190;2023-08-08T11:35:00;2.53;;;1.30;;
39740;SDS011;25426;53.478;10.190;2023-08-08T11:37:31;3.15;;;1.05;;
39740;SDS011;25426;53.478;10.190;2023-08-08T11:40:03;2.45;;;1.00;;
39740;SDS011;25426;53.478;10.190;2023-08-08T11:42:35;7.18;;;1.40;;
39740;SDS011;25426;53.478;10.190;2023-08-08T11:45:07;3.20;;;1.40;;
39740;SDS011;25426;53.478;10.190;2023-08-08T11:47:39;3.93;;;1.30;;
39740;SDS011;25426;53.478;10.190;2023-08-08T11:50:11;4.10;;;1.50;;
39740;SDS011;25426;53.478;10.190;2023-08-08T11:52:42;2.85;;;1.30;;
39740;SDS011;25426;53.478;10.190;2023-08-08T11:55:17;3.63;;;1.25;;
39740;SDS011;25426;53.478;10.190;2023-08-08T11:57:53;3.97;;;1.20;;
39740;SDS011;25426;53.478;10.190;2023-08-08T12:00:32;2.92;;;1.20;;
39740;SDS011;25426;53.478;10.190;2023-08-08T12:03:04;2.80;;;1.20;;
39740;SDS011;25426;53.478;10.190;2023-08-08T12:05:37;3.00;;;1.50;;
39740;SDS011;25426;53.478;10.190;2023-08-08T12:08:08;2.10;;;1.10;;
39740;SDS011;25426;53.478;10.190;2023-08-08T12:10:40;2.28;;;0.88;;
39740;SDS011;25426;53.478;10.190;2023-08-08T12:13:22;2.25;;;0.90;;
39740;SDS011;25426;53.478;10.190;2023-08-08T12:15:55;1.70;;;1.08;;
39740;SDS011;25426;53.478;10.190;2023-08-08T12:18:27;2.55;;;1.00;;
39740;SDS011;25426;53.478;10.190;2023-08-08T12:21:08;3.00;;;1.15;;
39740;SDS011;25426;53.478;10.190;2023-08-08T12:23:39;2.55;;;0.93;;
39740;SDS011;25426;53.478;10.190;2023-08-08T12:26:10;3.13;;;1.02;;
39740;SDS011;25426;53.478;10.190;2023-08-08T12:28:42;3.38;;;1.23;;
39740;SDS011;25426;53.478;10.190;2023-08-08T12:31:13;2.83;;;1.15;;
39740;SDS011;25426;53.478;10.190;2023-08-08T12:33:44;3.00;;;1.03;;
39740;SDS011;25426;53.478;10.190;2023-08-08T12:36:15;3.77;;;1.47;;
39740;SDS011;25426;53.478;10.190;2023-08-08T12:38:46;4.10;;;1.40;;
39740;SDS011;25426;53.478;10.190;2023-08-08T12:41:17;3.15;;;1.10;;
39740;SDS011;25426;53.478;10.190;2023-08-08T12:43:48;2.42;;;1.00;;
39740;SDS011;25426;53.478;10.190;2023-08-08T12:46:19;2.30;;;1.17;;
39740;SDS011;25426;53.478;10.190;2023-08-08T12:48:51;2.85;;;1.17;;
39740;SDS011;25426;53.478;10.190;2023-08-08T12:51:22;2.42;;;1.00;;
39740;SDS011;25426;53.478;10.190;2023-08-08T12:53:53;3.57;;;1.10;;
39740;SDS011;25426;53.478;10.190;2023-08-08T12:56:24;3.42;;;1.30;;
39740;SDS011;25426;53.478;10.190;2023-08-08T12:58:55;2.27;;;1.03;;
39740;SDS011;25426;53.478;10.190;2023-08-08T13:01:26;5.47;;;1.20;;
39740;SDS011;25426;53.478;10.190;2023-08-08T13:03:57;3.57;;;1.10;;
39740;SDS011;25426;53.478;10.190;2023-08-08T13:06:28;3.72;;;1.50;;
39740;SDS011;25426;53.478;10.190;2023-08-08T13:08:59;2.70;;;1.23;;
39740;SDS011;25426;53.478;10.190;2023-08-08T13:11:30;3.92;;;1.23;;
39740;SDS011;25426;53.478;10.190;2023-08-08T13:14:01;4.05;;;1.35;;
39740;SDS011;25426;53.478;10.190;2023-08-08T13:16:32;5.43;;;1.30;;
39740;SDS011;25426;53.478;10.190;2023-08-08T13:19:03;3.88;;;1.23;;
39740;SDS011;25426;53.478;10.190;2023-08-08T13:21:35;3.63;;;1.50;;
39740;SDS011;25426;53.478;10.190;2023-08-08T13:24:06;3.85;;;1.50;;
39740;SDS011;25426;53.478;10.190;2023-08-08T13:26:39;7.40;;;1.75;;
39740;SDS011;25426;53.478;10.190;2023-08-08T13:29:11;5.45;;;1.88;;
39740;SDS011;25426;53.478;10.190;2023-08-08T13:31:42;7.90;;;2.47;;
39740;SDS011;25426;53.478;10.190;2023-08-08T13:34:13;6.95;;;2.10;;
39740;SDS011;25426;53.478;10.190;2023-08-08T13:36:44;5.85;;;2.00;;
39740;SDS011;25426;53.478;10.190;2023-08-08T13:39:15;6.43;;;2.10;;
39740;SDS011;25426;53.478;10.190;2023-08-08T13:41:46;9.02;;;2.25;;
39740;SDS011;25426;53.478;10.190;2023-08-08T13:44:17;6.13;;;2.38;;
39740;SDS011;25426;53.478;10.190;2023-08-08T13:46:48;5.95;;;2.13;;
39740;SDS011;25426;53.478;10.190;2023-08-08T13:49:19;5.00;;;1.83;;
39740;SDS011;25426;53.478;10.190;2023-08-08T13:51:50;5.25;;;1.80;;
39740;SDS011;25426;53.478;10.190;2023-08-08T13:54:21;5.13;;;1.80;;
39740;SDS011;25426;53.478;10.190;2023-08-08T13:56:55;5.60;;;1.60;;
39740;SDS011;25426;53.478;10.190;2023-08-08T13:59:26;6.28;;;2.20;;
39740;SDS011;25426;53.478;10.190;2023-08-08T14:01:57;6.28;;;2.03;;
39740;SDS011;25426;53.478;10.190;2023-08-08T14:04:28;6.07;;;2.20;;
39740;SDS011;25426;53.478;10.190;2023-08-08T14:06:59;5.95;;;2.47;;
39740;SDS011;25426;53.478;10.190;2023-08-08T14:09:31;5.17;;;1.60;;
39740;SDS011;25426;53.478;10.190;2023-08-08T14:12:02;8.02;;;2.60;;
39740;SDS011;25426;53.478;10.190;2023-08-08T14:14:34;7.90;;;2.85;;
39740;SDS011;25426;53.478;10.190;2023-08-08T14:17:05;6.57;;;2.58;;
39740;SDS011;25426;53.478;10.190;2023-08-08T14:19:36;9.73;;;2.50;;
39740;SDS011;25426;53.478;10.190;2023-08-08T14:22:07;6.68;;;2.53;;
39740;SDS011;25426;53.478;10.190;2023-08-08T14:24:38;8.88;;;2.45;;
39740;SDS011;25426;53.478;10.190;2023-08-08T14:27:09;5.07;;;2.00;;
39740;SDS011;25426;53.478;10.190;2023-08-08T14:29:40;5.82;;;2.15;;
39740;SDS011;25426;53.478;10.190;2023-08-08T14:32:11;5.30;;;1.98;;
39740;SDS011;25426;53.478;10.190;2023-08-08T14:34:42;5.55;;;1.95;;
39740;SDS011;25426;53.478;10.190;2023-08-08T14:37:13;5.97;;;2.30;;
39740;SDS011;25426;53.478;10.190;2023-08-08T14:39:44;6.75;;;1.92;;
39740;SDS011;25426;53.478;10.190;2023-08-08T14:42:15;5.50;;;1.90;;
39740;SDS011;25426;53.478;10.190;2023-08-08T14:44:46;4.95;;;1.70;;
39740;SDS011;25426;53.478;10.190;2023-08-08T14:47:17;4.22;;;1.67;;
39740;SDS011;25426;53.478;10.190;2023-08-08T14:49:47;5.13;;;1.60;;
39740;SDS011;25426;53.478;10.190;2023-08-08T14:52:20;5.97;;;1.90;;
39740;SDS011;25426;53.478;10.190;2023-08-08T14:54:51;5.93;;;1.87;;
39740;SDS011;25426;53.478;10.190;2023-08-08T14:57:22;6.55;;;2.03;;
39740;SDS011;25426;53.478;10.190;2023-08-08T14:59:53;6.25;;;2.58;;
39740;SDS011;25426;53.478;10.190;2023-08-08T15:02:24;8.83;;;2.40;;
39740;SDS011;25426;53.478;10.190;2023-08-08T15:04:55;5.72;;;1.60;;
39740;SDS011;25426;53.478;10.190;2023-08-08T15:07:26;5.23;;;2.07;;
39740;SDS011;25426;53.478;10.190;2023-08-08T15:09:57;6.43;;;1.90;;
39740;SDS011;25426;53.478;10.190;2023-08-08T15:12:28;5.55;;;1.95;;
39740;SDS011;25426;53.478;10.190;2023-08-08T15:14:59;6.57;;;2.35;;
39740;SDS011;25426;53.478;10.190;2023-08-08T15:17:30;7.10;;;2.10;;
39740;SDS011;25426;53.478;10.190;2023-08-08T15:20:02;5.75;;;1.88;;
39740;SDS011;25426;53.478;10.190;2023-08-08T15:22:33;5.28;;;1.83;;
39740;SDS011;25426;53.478;10.190;2023-08-08T15:25:04;6.35;;;2.00;;
39740;SDS011;25426;53.478;10.190;2023-08-08T15:27:35;4.53;;;1.48;;
39740;SDS011;25426;53.478;10.190;2023-08-08T15:30:06;7.28;;;1.70;;
39740;SDS011;25426;53.478;10.190;2023-08-08T15:32:38;4.77;;;1.57;;
39740;SDS011;25426;53.478;10.190;2023-08-08T15:35:09;7.22;;;1.77;;
39740;SDS011;25426;53.478;10.190;2023-08-08T15:37:40;7.10;;;1.67;;
39740;SDS011;25426;53.478;10.190;2023-08-08T15:40:11;4.70;;;1.90;;
39740;SDS011;25426;53.478;10.190;2023-08-08T15:42:42;5.28;;;1.85;;
39740;SDS011;25426;53.478;10.190;2023-08-08T15:45:13;5.82;;;1.77;;
39740;SDS011;25426;53.478;10.190;2023-08-08T15:47:44;6.60;;;1.67;;
39740;SDS011;25426;53.478;10.190;2023-08-08T15:50:15;5.47;;;1.42;;
39740;SDS011;25426;53.478;10.190;2023-08-08T15:52:46;5.97;;;1.73;;
39740;SDS011;25426;53.478;10.190;2023-08-08T15:55:17;3.75;;;1.20;;
39740;SDS011;25426;53.478;10.190;2023-08-08T15:57:48;3.53;;;1.45;;
39740;SDS011;25426;53.478;10.190;2023-08-08T16:00:19;3.87;;;1.40;;
39740;SDS011;25426;53.478;10.190;2023-08-08T16:02:50;4.57;;;1.48;;
39740;SDS011;25426;53.478;10.190;2023-08-08T16:05:21;3.95;;;1.23;;
39740;SDS011;25426;53.478;10.190;2023-08-08T16:07:52;3.60;;;1.20;;
39740;SDS011;25426;53.478;10.190;2023-08-08T16:10:23;4.35;;;1.60;;
39740;SDS011;25426;53.478;10.190;2023-08-08T16:12:54;4.85;;;1.45;;
39740;SDS011;25426;53.478;10.190;2023-08-08T16:15:25;5.93;;;1.80;;
39740;SDS011;25426;53.478;10.190;2023-08-08T16:17:56;4.80;;;1.55;;
39740;SDS011;25426;53.478;10.190;2023-08-08T16:20:27;8.27;;;1.85;;
39740;SDS011;25426;53.478;10.190;2023-08-08T16:22:58;4.93;;;1.88;;
39740;SDS011;25426;53.478;10.190;2023-08-08T16:25:29;6.03;;;1.50;;
39740;SDS011;25426;53.478;10.190;2023-08-08T16:28:00;5.70;;;1.53;;
39740;SDS011;25426;53.478;10.190;2023-08-08T16:30:33;4.75;;;1.70;;
39740;SDS011;25426;53.478;10.190;2023-08-08T16:33:04;4.73;;;1.53;;
39740;SDS011;25426;53.478;10.190;2023-08-08T16:35:35;5.50;;;2.10;;
39740;SDS011;25426;53.478;10.190;2023-08-08T16:38:06;4.07;;;1.67;;
39740;SDS011;25426;53.478;10.190;2023-08-08T16:40:37;5.17;;;1.90;;
39740;SDS011;25426;53.478;10.190;2023-08-08T16:43:08;7.85;;;2.50;;
39740;SDS011;25426;53.478;10.190;2023-08-08T16:45:41;6.82;;;2.20;;
39740;SDS011;25426;53.478;10.190;2023-08-08T16:48:12;6.47;;;2.20;;
39740;SDS011;25426;53.478;10.190;2023-08-08T16:50:43;6.60;;;2.30;;
39740;SDS011;25426;53.478;10.190;2023-08-08T16:53:13;7.10;;;2.10;;
39740;SDS011;25426;53.478;10.190;2023-08-08T16:55:44;7.70;;;2.37;;
39740;SDS011;25426;53.478;10.190;2023-08-08T16:58:15;8.27;;;2.35;;
39740;SDS011;25426;53.478;10.190;2023-08-08T17:00:46;6.70;;;2.30;;
39740;SDS011;25426;53.478;10.190;2023-08-08T17:03:17;8.73;;;2.42;;
39740;SDS011;25426;53.478;10.190;2023-08-08T17:05:48;7.22;;;2.00;;
39740;SDS011;25426;53.478;10.190;2023-08-08T17:08:19;8.48;;;2.33;;
39740;SDS011;25426;53.478;10.190;2023-08-08T17:10:50;6.30;;;2.10;;
39740;SDS011;25426;53.478;10.190;2023-08-08T17:13:21;7.72;;;2.10;;
39740;SDS011;25426;53.478;10.190;2023-08-08T17:15:52;4.45;;;1.60;;
39740;SDS011;25426;53.478;10.190;2023-08-08T17:18:23;3.90;;;1.77;;
39740;SDS011;25426;53.478;10.190;2023-08-08T17:20:54;5.88;;;1.77;;
39740;SDS011;25426;53.478;10.190;2023-08-08T17:23:25;6.53;;;1.92;;
39740;SDS011;25426;53.478;10.190;2023-08-08T17:25:56;5.88;;;2.08;;
39740;SDS011;25426;53.478;10.190;2023-08-08T17:28:28;7.25;;;1.80;;
39740;SDS011;25426;53.478;10.190;2023-08-08T17:31:00;6.78;;;1.80;;
39740;SDS011;25426;53.478;10.190;2023-08-08T17:33:31;4.40;;;1.80;;
39740;SDS011;25426;53.478;10.190;2023-08-08T17:36:02;4.47;;;1.87;;
39740;SDS011;25426;53.478;10.190;2023-08-08T17:38:34;4.55;;;2.08;;
39740;SDS011;25426;53.478;10.190;2023-08-08T17:41:05;4.93;;;1.90;;
39740;SDS011;25426;53.478;10.190;2023-08-08T17:43:36;5.32;;;2.03;;
39740;SDS011;25426;53.478;10.190;2023-08-08T17:46:07;8.20;;;2.13;;
39740;SDS011;25426;53.478;10.190;2023-08-08T17:48:38;4.37;;;1.73;;
39740;SDS011;25426;53.478;10.190;2023-08-08T17:51:09;5.35;;;1.60;;
39740;SDS011;25426;53.478;10.190;2023-08-08T17:53:39;4.30;;;2.05;;
39740;SDS011;25426;53.478;10.190;2023-08-08T17:56:10;5.97;;;1.87;;
39740;SDS011;25426;53.478;10.190;2023-08-08T17:58:41;3.45;;;1.42;;
39740;SDS011;25426;53.478;10.190;2023-08-08T18:01:15;7.78;;;2.10;;
39740;SDS011;25426;53.478;10.190;2023-08-08T18:03:46;6.93;;;1.73;;
39740;SDS011;25426;53.478;10.190;2023-08-08T18:06:17;5.60;;;1.98;;
39740;SDS011;25426;53.478;10.190;2023-08-08T18:08:48;5.85;;;1.90;;
39740;SDS011;25426;53.478;10.190;2023-08-08T18:11:19;5.80;;;1.83;;
39740;SDS011;25426;53.478;10.190;2023-08-08T18:13:50;6.60;;;1.80;;
39740;SDS011;25426;53.478;10.190;2023-08-08T18:16:21;6.07;;;1.88;;
39740;SDS011;25426;53.478;10.190;2023-08-08T18:18:52;4.72;;;1.48;;
39740;SDS011;25426;53.478;10.190;2023-08-08T18:21:23;4.53;;;1.70;;
39740;SDS011;25426;53.478;10.190;2023-08-08T18:23:56;5.38;;;1.80;;
39740;SDS011;25426;53.478;10.190;2023-08-08T18:26:27;6.60;;;1.77;;
39740;SDS011;25426;53.478;10.190;2023-08-08T18:29:01;6.35;;;1.95;;
39740;SDS011;25426;53.478;10.190;2023-08-08T18:31:32;7.63;;;2.20;;
39740;SDS011;25426;53.478;10.190;2023-08-08T18:34:03;6.63;;;1.70;;
39740;SDS011;25426;53.478;10.190;2023-08-08T18:36:34;7.07;;;2.13;;
39740;SDS011;25426;53.478;10.190;2023-08-08T18:39:05;5.25;;;1.88;;
39740;SDS011;25426;53.478;10.190;2023-08-08T18:41:36;5.60;;;1.85;;
39740;SDS011;25426;53.478;10.190;2023-08-08T18:44:07;3.97;;;1.53;;
39740;SDS011;25426;53.478;10.190;2023-08-08T18:46:38;7.07;;;1.85;;
39740;SDS011;25426;53.478;10.190;2023-08-08T18:49:10;6.50;;;2.05;;
39740;SDS011;25426;53.478;10.190;2023-08-08T18:51:43;4.55;;;1.60;;
39740;SDS011;25426;53.478;10.190;2023-08-08T18:54:14;9.45;;;2.28;;
39740;SDS011;25426;53.478;10.190;2023-08-08T18:56:45;6.13;;;2.00;;
39740;SDS011;25426;53.478;10.190;2023-08-08T18:59:16;6.63;;;1.80;;
39740;SDS011;25426;53.478;10.190;2023-08-08T19:01:47;6.18;;;1.88;;
39740;SDS011;25426;53.478;10.190;2023-08-08T19:04:18;9.27;;;2.03;;
39740;SDS011;25426;53.478;10.190;2023-08-08T19:06:49;6.60;;;1.77;;
39740;SDS011;25426;53.478;10.190;2023-08-08T19:09:20;6.40;;;1.75;;
39740;SDS011;25426;53.478;10.190;2023-08-08T19:11:51;7.57;;;1.80;;
39740;SDS011;25426;53.478;10.190;2023-08-08T19:14:22;8.20;;;1.60;;
